• Join FlightAware (Why Join?)
  • Login
  • US Flag 
06:18PM EDT


 

Airport Tracker/Info


-or-


 

Live Flight TrackerFlight Track Log ✈ N328AJ ✈ 07-Oct-2013 ✈ KCMH - KIAD

Flight Track Log - Related Links

Times and Time Zones

All times are in EDT time to prevent confusion due to time zone crossing. See the N328AJ flight status page for this flight to view local times or setup timezone preferences in your user account.

Time Position Orientation Groundspeed Altitude Reporting Facility
EDT Latitude Longitude Course Direction KTS MPH feet Rate Location/Type
07:29AM 39.9986 -82.9039 North 150 173 1,500  Level Indianapolis Center
07:29AM 40.0322 -82.9011 North 179 206 2,900 1,920 Climbing Indianapolis Center
07:30AM 40.0461 -82.8986 North 182 209 3,500 1,560 Climbing Indianapolis Center
07:31AM 40.1006 -82.9006 358° North 189 217 5,000 1,380 Climbing Indianapolis Center
07:32AM 40.1542 -82.8611 29° Northeast 237 273 6,400 1,560 Climbing Indianapolis Center
07:33AM 40.1575 -82.7742 87° East 242 278 8,200 1,620 Climbing Indianapolis Center
07:34AM 40.1636 -82.6839 85° East 248 285 9,800 840 Climbing Indianapolis Center
07:35AM 40.1717 -82.5536 85° East 299 344 10,000  Climbing Indianapolis Center
07:36AM 40.1778 -82.4367 86° East 318 366 9,900 420 Descending Indianapolis Center
07:37AM 40.1825 -82.3214 87° East 319 367 10,900 1,020 Climbing Indianapolis Center
07:38AM 40.1906 -82.2136 84° East 303 349 12,000 1,020 Climbing Indianapolis Center
07:39AM 40.1856 -82.1158 94° East 274 315 13,100 1,080 Climbing Indianapolis Center
07:40AM 40.1606 -82.0325 111° Southeast 249 287 14,200 1,020 Climbing Indianapolis Center
07:41AM 40.1372 -81.9478 110° East 249 287 15,300 1,020 Climbing Indianapolis Center
07:42AM 40.1133 -81.8617 110° East 252 290 16,400 1,080 Climbing Indianapolis Center
07:43AM 40.0869 -81.7664 110° East 253 291 17,600 1,140 Climbing Indianapolis Center
07:44AM 40.0650 -81.6800 108° East 250 288 18,800 1,140 Climbing Indianapolis Center
07:45AM 40.0411 -81.5925 110° East 253 291 20,000 960 Climbing Indianapolis Center
07:46AM 40.0175 -81.5069 110° East 251 289 20,800 480 Climbing Indianapolis Center
07:47AM 39.9931 -81.4186 110° East 255 293 21,000 60 Climbing Indianapolis Center
07:48AM 39.9656 -81.3192 110° East 283 326 21,000  Level Indianapolis Center
07:49AM 39.9339 -81.2033 110° East 299 344 21,000  Level Indianapolis Center
07:50AM 39.9056 -81.0986 109° East 304 350 21,000  Level Indianapolis Center
07:51AM 39.8761 -80.9953 110° East 305 351 21,000  Level Indianapolis Center
07:52AM 39.8475 -80.8892 109° East 310 357 21,000  Level Indianapolis Center
07:53AM 39.8186 -80.7850 110° East 308 354 21,000  Level Indianapolis Center
07:54AM 39.7900 -80.6825 110° East 301 346 21,000  Level Indianapolis Center
07:55AM 39.7622 -80.5825 110° East 296 341 21,000  Level Indianapolis Center
07:56AM 39.7264 -80.4606 111° Southeast 300 345 21,000  Level Indianapolis Center
07:57AM 39.6978 -80.3594 110° East 299 344 21,000  Level Indianapolis Center
07:58AM 39.6708 -80.2592 109° East 295 339 21,000  Level Indianapolis Center
08:00AM 39.6444 -80.1642 110° East 283 326 21,000  Level Indianapolis Center
08:01AM 39.6178 -80.0725 111° Southeast 273 314 21,000  Level Indianapolis Center
08:02AM 39.5908 -79.9783 110° East 277 319 21,000  Level Indianapolis Center
08:03AM 39.5667 -79.8800 108° East 272 313 21,000  Level Washington Center
08:04AM 39.5553 -79.7825 99° East 272 313 21,000  Level Washington Center
08:05AM 39.5464 -79.6797 96° East 278 320 21,000  Level Washington Center
08:06AM 39.5394 -79.5797 95° East 278 320 21,000  Level Washington Center
08:07AM 39.5322 -79.4769 95° East 278 320 21,000  Level Washington Center
08:08AM 39.5231 -79.3742 97° East 278 320 21,000  Level Washington Center
08:09AM 39.5119 -79.2606 97° East 278 320 21,000  Level Washington Center
08:10AM 39.5003 -79.1633 99° East 283 326 21,000 -300 Level Washington Center
08:11AM 39.4908 -79.0578 97° East 288 331 20,500 -780 Descending Washington Center
08:12AM 39.4836 -78.9472 95° East 299 344 19,500 -1,080 Descending Washington Center
08:13AM 39.4722 -78.8339 97° East 305 351 18,400 -1,440 Descending Washington Center
08:14AM 39.4647 -78.7206 95° East 310 357 16,600 -1,860 Descending Washington Center
08:15AM 39.4528 -78.6181 99° East 310 357 14,800 -1,860 Descending Washington Center
08:16AM 39.4450 -78.5075 95° East 310 357 13,000 -1,740 Descending Washington Center
08:17AM 39.4642 -78.4061 76° East 305 351 11,300 -1,740 Descending Washington Center
08:18AM 39.5264 -78.3306 43° Northeast 278 320 9,600 -1,200 Descending Washington Center
08:19AM 39.5861 -78.2628 41° Northeast 283 326 9,000 -360 Descending Washington Center
08:19AM 39.6289 -78.2128 42° Northeast 271 312 9,000  Level Cleveland Center
08:21AM 39.7500 -78.1000 36° Northeast 255 293 9,000  Level Potomac TRACON
08:22AM 39.8000 -78.0500 38° Northeast 252 290 9,000  Level Potomac TRACON
08:23AM 39.8333 -78.0000 49° Northeast 251 289 9,000  Level Potomac TRACON
08:24AM 39.8333 -77.9167 90° East 276 318 9,000  Level Potomac TRACON
08:25AM 39.7833 -77.8833 153° Southeast 234 269 9,000  Level Potomac TRACON
08:26AM 39.7333 -77.8333 142° Southeast 195 224 9,000 -300 Level Potomac TRACON
08:27AM 39.6833 -77.8000 153° Southeast 196 226 8,400 -660 Descending Potomac TRACON
08:28AM 39.6333 -77.7500 142° Southeast 212 244 7,700 -660 Descending Potomac TRACON
08:29AM 39.6000 -77.7167 142° Southeast 217 250 7,200 -420 Descending Potomac TRACON
08:30AM 39.5500 -77.6833 153° Southeast 219 252 7,000 -120 Descending Potomac TRACON
08:31AM 39.4833 -77.6333 150° Southeast 221 254 7,000 -300 Level Potomac TRACON
08:32AM 39.4333 -77.6000 153° Southeast 229 264 6,500 -900 Descending Potomac TRACON
08:33AM 39.3667 -77.5667 159° South 228 262 5,300 -720 Descending Potomac TRACON
08:34AM 39.3167 -77.5333 153° Southeast 209 241 5,100 -480 Descending Potomac TRACON
08:35AM 39.2667 -77.5000 153° Southeast 192 221 4,400 -900 Descending Potomac TRACON
08:36AM 39.2333 -77.4667 142° Southeast 179 206 3,500 -720 Descending Potomac TRACON
08:37AM 39.1833 -77.4500 166° South 170 196 3,000 -300 Descending Potomac TRACON
08:38AM 39.1333 -77.4500 180° South 157 181 3,000 -60 Level Potomac TRACON
08:39AM 39.1000 -77.4500 180° South 120 138 2,900 -420 Descending Potomac TRACON
08:40AM 39.0667 -77.4500 180° South 114 131 2,200 -660 Descending Potomac TRACON
08:41AM 39.0333 -77.4500 180° South 118 136 1,700 -600 Descending Potomac TRACON
08:42AM 39.0000 -77.4667 201° Southwest 128 147 1,000 -660 Descending Potomac TRACON